Dauntless Aviation
Airports Europe Belgium
EBBR
BRU

Brussels Airport

Brussels, BELGIUM

Airport Info
Suggest Updated Information for this Airport

Location

Latitude / Longitude: 50°54'5"N / 4°29'3"E
  50°54.084'N / 4°29.064'E
  50.9014 / 4.4844

Nearby radio navigation aids

AFI AFFLIGEM VOR/DME. 92.5° 13.7nm from AFI to field.
BUB BRUSSELS NATL VOR/DME. 271.2° 1.5nm from BUB to field.
BUN BRUNO VOR/DME. 226.2° 18.4nm from BUN to field.
OB BRUSSELS NDB. 257.3° 4.6nm from OB to field.
OZ BRUSSELS NDB. 16.1° 4.7nm from OZ to field.

Runway Information

Runway 02 /20

Dimensions: 9800 x 164 ft.
Surface: ASP
 
Runway 02
Runway 20
Latitude: 50.887331 50.911011
Longitude: 4.491578 4.501239
Elevation: 183 ft. 183 ft.
Runway true heading: 12 192.4
 

Runway 07L/25R

Dimensions: 11936 x 148 ft.
Surface: ASP
 
Runway 07L
Runway 25R
Latitude: 50.900033 50.911542
Longitude: 4.459564 4.499386
Elevation: 129 ft. 129 ft.
Runway true heading: 63 243
 

Runway 07R/25L

Dimensions: 10535 x 148 ft.
Surface: ASP
 
Runway 07R
Runway 25L
Latitude: 50.889406 50.898942
Longitude: 4.482056 4.5233
Elevation: 175 ft. 175 ft.
Runway true heading: 68 248.4
 

Instrument Procedures

  Aerodrome Chart
  Aerodrome Chart Appendix 1: Runway Marking Aids
  Aerodrome Chart Appendix 2: Runway Lighting Aids
  Aircraft Parking Docking Chart Apron 9
  Aerodrome Ground Movement Chart
  Aerodrome Ground Movement Chart Appendix 1: Taxiways/ Aircraft Stand Taxi Lanes and Holding Platforms (A)
  Aerodrome Ground Movement Chart Appendix 1: Taxiways/ Aircraft Stand Taxi Lanes and Holding Platforms (B)
  Aerodrome Ground Movement Chart Appendix 1: Taxiways/ Aircraft Stand Taxi Lanes and Holding Platforms (C)
  Aerodrome Ground Movement Chart Appendix 2: Ground Movement Responsibilities
  Aerodrome Ground Movement Chart Appendix 3: Low Visibility Procedures
  Aerodrome Ground Movement Chart Appendix 4: Hot Spots
  Aerodrome Ground Movement Chart Appendix 6: B747-8/-8F Ground Movements
  Aerodrome Ground Movement Chart Appendix 7: De-Icing
  Aircraft Parking Docking Chart General Aviation
  Aircraft Parking Docking Chart Mil Apron
  Aerodrome Ground Movement Chart Appendix 1: Taxiways/ Aircraft Stand Taxi Lanes and Holding Platforms (d)
  Aircraft Parking Docking Chart
  Aerodrome Ground Movement Chart Appendix 5: A380 Ground Movements

STARs (Standard Terminal Arrivals)

  STAR - Instrument
  STAR - Instrument P-RNAV Overlay GNSS / DME-DME)

IAPs (Instrument Approach Procedures)

  Visual Approach Chart
  Aerodrome Information (Textual)
  Aerodrome Obstacle Chart. Type A (Operating Limitations) : Rwy 01/19
  Aerodrome Obstacle Chart. Type A (Operating Limitations) : Rwy 07L/25R
  Aerodrome Obstacle Chart. Type A (Operating Limitations) : Rwy 07R/25L
  Aerodrome Obstacle Chart. Type B
  Precision Approach Terrain Chart Rwy 25L
  Precision Approach Terrain Chart Rwy 25R
  RNP Rwy 01. Appendix: FAS Datablock
  RNP Rwy 25L. Appendix: FAS Datablock
  RNP Rwy 19. Appendix: FAS Datablock
  RNP Rwy 07L. Appendix: FAS Datablock
  RNP Rwy 07L
  RNP Rwy 07R. Appendix: FAS Datablock
  RNP Rwy 07R
  ATC Surveillance Minimum Altitude Chart
  ILS CAT II and III or LOC Z Rwy 25R (IAF ANT/KERKY)
  ILS CAT II and III or LOC Y Rwy 25R (IAF FLO)
  ILS CAT II and III or LOC Z Rwy 25L (IAF ANT/KERKY)
  ILS CAT II and III or LOC Y Rwy 25L (IAF FLO)
  VOR Z Rwy 25L (IAF ANT/KERKY)
  VOR Y Rwy 25L (IAF FLO)
  ILS or LOC Rwy 01
  ILS or LOC Rwy 01. Appendix: Alternate Routes Rwy 01
  ILS or LOC Rwy 19
  VOR Rwy 07L
  RNP Rwy 01
  RNP Rwy 25L
  RNP Rwy 25R. Appendix: FAS Datablock
  RNP Rwy 25R
  RNP Rwy 19
  VOR Rwy 07R

Departure Procedures

  SID - Instrument Rwy 01
  SID - Instrument Rwy 07L
  SID - Instrument Rwy 07L (RNAV1 Overlay)
  SID - Instrument Rwy 07L
  SID - Instrument Rwy 07R
  SID - Instrument Rwy 07R (RNAV1 Overlay)
  SID - Instrument Rwy 07R
  SID - Instrument Rwy 19
  SID - Instrument Rwy 19 (P-RNAV Overlay GNSS / DME-DME)
  SID - Instrument Rwy 25L (C Departures)
  SID - Instrument Rwy 25L (D - Q Departures)
  SID - Instrument Rwy 25L (E - G Departures; RNAV1 Overlay)
  SID - Instrument Rwy 25L (K Departures; RNAV1 Overlay)
  SID - Instrument Rwy 25R (C Departures)
  SID - Instrument Rwy 25R (D - Z Departures)
  SID - Instrument Rwy 25R (G Departures; RNAV1 Overlay)
  SID - Instrument Rwy 25R (D - K Departures; RNAV1 Overlay)
  SID - Instrument Rwy 25R (M Departures; RNAV1 Overlay)
Satellite photo at:
Airport distance calculator
From:
Weather Reports

METAR

EBBR

EBBR 181550Z VRB02KT 9999 SCT040 25/14 Q1013 NOSIG
EBBE
14.0nm E
EBBE 181555Z AUTO 10003KT 9999 FEW042/// OVC050/// 25/15 Q1013 BLU
EBAW
17.9nm NW
EBAW 181550Z 32007KT 9999 SCT041 25/15 Q1013 NOSIG
EBDT
23.1nm NE
EBDT 181555Z AUTO 32003KT 9999 FEW069/// 26/15 Q1013 BLU
EBCI
26.1nm S
EBCI 181550Z 06004KT 010V110 9999 FEW040 25/14 Q1014 NOSIG
EBCV
32.4nm SW
EBCV 181555Z AUTO 30003KT 9999 NCD 26/13 Q1013 BLU

TAF

EBBR
TAF EBBR 181115Z 1812/1918 34006KT 9999 SCT025 SCT045 PROB30 TEMPO 1903/1906 4000 BR BECMG 1909/1911 26010KT PROB40 TEMPO 1914/1918 3500 SHRA
EBBE
14.0nm E
TAF EBBE 181141Z 1813/1822 34006KT 9999 FEW040 SCT045
EBAW
17.9nm NW
TAF EBAW 181401Z 1815/1824 34005KT 9999 SCT030
EBCI
26.1nm S
TAF EBCI 181115Z 1812/1918 34006KT 9999 SCT020 SCT040 PROB30 TEMPO 1902/1906 3000 BR BKN005 BECMG 1910/1912 26010KT PROB40 TEMPO 1914/1918 3500 SHRA
EBCV
32.4nm SW
TAF EBCV 181141Z 1813/1822 28005KT 9999 FEW030 SCT035 BY EBWM
EHWO
33.5nm NW
TAF EHWO 180815Z 1809/1821 VRB02KT 9999 FEW015 BECMG 1809/1811 35004KT PROB30 TEMPO 1812/1818 FEW015 SCT025CB
Safelog

 

Dauntless Aviation

© 2007-2022 Dauntless Aviation, all rights reserved
Information provided via PilotNav comes from a variety of official and unofficial data sources. As errors are possible, do not use PilotNav for primary flight planning purposes. Verify any information that you receive via PilotNav with current and canonical charts and other official documents. The material in this database is subject to database copyrights held by Dauntless Aviation and may not be copied without the express permission of Dauntless Aviation - licenses for use of part of all of this data are available for purchase; enquire via the Dauntless Aviation helpdesk. A number of mechanisms and markers exist in the database to protect against and identify infringement / copyright. Automated queries against this website are strictly prohibited, and all activity is logged and analyzed.